createdAt,value
2023-03-06T00:00:12.727Z,15.65
2023-03-06T00:01:12.740Z,15.65
2023-03-06T00:02:12.711Z,15.65
2023-03-06T00:03:12.710Z,15.64
2023-03-06T00:04:12.684Z,15.65
2023-03-06T00:05:12.717Z,15.67
2023-03-06T00:06:12.738Z,15.65
2023-03-06T00:07:12.655Z,15.65
2023-03-06T00:08:12.651Z,15.65
2023-03-06T00:09:12.661Z,15.65
2023-03-06T00:10:12.621Z,15.65
2023-03-06T00:11:12.615Z,15.65
2023-03-06T00:12:12.615Z,15.67
2023-03-06T00:13:12.606Z,15.64
2023-03-06T00:14:12.598Z,15.67
2023-03-06T00:15:12.620Z,15.64
2023-03-06T00:16:12.600Z,15.65
2023-03-06T00:17:12.552Z,15.65
2023-03-06T00:18:12.538Z,15.68
2023-03-06T00:19:12.531Z,15.65
2023-03-06T00:20:12.559Z,15.65
2023-03-06T00:21:12.507Z,15.64
2023-03-06T00:22:12.496Z,15.64
2023-03-06T00:23:12.522Z,15.67
2023-03-06T00:24:12.473Z,15.65
2023-03-06T00:25:12.469Z,15.65
2023-03-06T00:26:12.481Z,15.65
2023-03-06T00:27:12.438Z,15.65
2023-03-06T00:28:12.453Z,15.65
2023-03-06T00:29:12.418Z,15.65
2023-03-06T00:30:12.407Z,15.65
2023-03-06T00:31:12.498Z,15.67
2023-03-06T00:32:12.418Z,15.64
2023-03-06T00:33:12.390Z,15.64
2023-03-06T00:34:12.367Z,15.65
2023-03-06T00:35:12.350Z,15.64
2023-03-06T00:36:12.344Z,15.64
2023-03-06T00:37:12.352Z,15.64
2023-03-06T00:38:12.328Z,15.65
2023-03-06T00:39:12.308Z,15.65
2023-03-06T00:40:12.328Z,15.64
2023-03-06T00:41:12.287Z,15.65
2023-03-06T00:42:12.279Z,15.65
2023-03-06T00:43:12.284Z,15.65
2023-03-06T00:44:12.251Z,15.64
2023-03-06T00:45:12.257Z,15.64
2023-03-06T00:46:12.284Z,15.65
2023-03-06T00:47:12.248Z,15.64
2023-03-06T00:48:12.216Z,15.64
2023-03-06T00:49:12.203Z,15.64
2023-03-06T00:50:12.229Z,15.64
2023-03-06T00:51:14.029Z,15.64
2023-03-06T00:52:12.165Z,15.65
2023-03-06T00:53:12.176Z,15.64
2023-03-06T00:54:12.177Z,15.62
2023-03-06T00:55:12.144Z,15.64
2023-03-06T00:56:12.123Z,15.64
2023-03-06T00:57:12.126Z,15.64
2023-03-06T00:58:12.101Z,15.64
2023-03-06T00:59:12.116Z,15.65
2023-03-06T01:00:12.077Z,15.62
2023-03-06T01:01:12.121Z,15.62
2023-03-06T01:02:12.139Z,15.62
2023-03-06T01:03:12.078Z,15.60
2023-03-06T01:04:12.061Z,15.65
2023-03-06T01:05:12.024Z,15.64
2023-03-06T01:06:12.029Z,15.64
2023-03-06T01:07:11.999Z,15.64
2023-03-06T01:08:11.994Z,15.64
2023-03-06T01:09:11.980Z,15.64
2023-03-06T01:10:11.976Z,15.64
2023-03-06T01:11:11.981Z,15.64
2023-03-06T01:12:11.948Z,15.62
2023-03-06T01:13:11.935Z,15.62
2023-03-06T01:14:11.940Z,15.64
2023-03-06T01:15:11.911Z,15.64
2023-03-06T01:16:11.952Z,15.64
2023-03-06T01:17:11.891Z,15.64
2023-03-06T01:18:11.876Z,15.64
2023-03-06T01:19:11.893Z,15.64
2023-03-06T01:20:11.875Z,15.64
2023-03-06T01:21:11.848Z,15.64
2023-03-06T01:22:11.839Z,15.64
2023-03-06T01:23:11.840Z,15.64
2023-03-06T01:24:11.812Z,15.64
2023-03-06T01:25:11.806Z,15.62
2023-03-06T01:26:11.793Z,15.64
2023-03-06T01:27:11.800Z,15.64
2023-03-06T01:28:11.767Z,15.64
2023-03-06T01:29:11.762Z,15.64
2023-03-06T01:30:11.763Z,15.62
2023-03-06T01:31:11.736Z,15.64
2023-03-06T01:32:11.823Z,15.62
2023-03-06T01:33:11.712Z,15.64
2023-03-06T01:34:11.707Z,15.64
2023-03-06T01:35:11.714Z,15.64
2023-03-06T01:36:11.721Z,15.62
2023-03-06T01:37:11.694Z,15.64
2023-03-06T01:38:11.684Z,15.64
2023-03-06T01:39:11.655Z,15.65
2023-03-06T01:40:11.641Z,15.64
2023-03-06T01:41:11.629Z,15.62
2023-03-06T01:42:11.623Z,15.64
2023-03-06T01:43:11.640Z,15.64
2023-03-06T01:44:11.601Z,15.64
2023-03-06T01:45:11.588Z,15.64
2023-03-06T01:46:11.593Z,15.62
2023-03-06T01:47:11.567Z,15.64
2023-03-06T01:48:11.578Z,15.62
2023-03-06T01:49:11.543Z,15.64
2023-03-06T01:50:11.547Z,15.64
2023-03-06T01:51:11.572Z,15.64
2023-03-06T01:52:11.531Z,15.62
2023-03-06T01:53:11.502Z,15.64
2023-03-06T01:54:11.495Z,15.64
2023-03-06T01:55:11.481Z,15.62
2023-03-06T01:56:11.476Z,15.64
2023-03-06T01:57:11.478Z,15.62
2023-03-06T01:58:11.457Z,15.62
2023-03-06T01:59:11.435Z,15.62
2023-03-06T02:00:11.445Z,15.62
2023-03-06T02:01:11.507Z,15.62
2023-03-06T02:02:11.438Z,15.62
2023-03-06T02:03:11.420Z,15.64
2023-03-06T02:04:11.383Z,15.62
2023-03-06T02:05:11.373Z,15.62
2023-03-06T02:06:11.394Z,15.62
2023-03-06T02:07:11.374Z,15.62
2023-03-06T02:08:11.341Z,15.64
2023-03-06T02:09:11.332Z,15.62
2023-03-06T02:10:11.318Z,15.62
2023-03-06T02:11:11.376Z,15.62
2023-03-06T02:12:11.323Z,15.60
2023-03-06T02:13:11.284Z,15.60
2023-03-06T02:14:11.297Z,15.62
2023-03-06T02:15:11.285Z,15.62
2023-03-06T02:16:11.271Z,15.62
2023-03-06T02:17:11.242Z,15.62
2023-03-06T02:18:11.234Z,15.64
2023-03-06T02:19:11.244Z,15.64
2023-03-06T02:20:11.215Z,15.62
2023-03-06T02:21:11.200Z,15.62
2023-03-06T02:22:11.188Z,15.62
2023-03-06T02:23:11.203Z,15.60
2023-03-06T02:24:11.189Z,15.62
2023-03-06T02:25:11.181Z,15.62
2023-03-06T02:26:11.148Z,15.64
2023-03-06T02:27:11.137Z,15.62
2023-03-06T02:28:11.133Z,15.62
2023-03-06T02:29:11.117Z,15.62
2023-03-06T02:30:11.122Z,15.62
2023-03-06T02:31:11.179Z,15.62
2023-03-06T02:32:11.128Z,15.60
2023-03-06T02:33:11.072Z,15.62
2023-03-06T02:34:11.058Z,15.62
2023-03-06T02:35:11.074Z,15.62
2023-03-06T02:36:11.041Z,15.60
2023-03-06T02:37:11.046Z,15.62
2023-03-06T02:38:11.015Z,15.62
2023-03-06T02:39:11.033Z,15.64
2023-03-06T02:40:10.995Z,15.62
2023-03-06T02:41:11.010Z,15.62
2023-03-06T02:42:10.973Z,15.62
2023-03-06T02:43:10.971Z,15.62
2023-03-06T02:44:10.951Z,15.62
2023-03-06T02:45:10.963Z,15.62
2023-03-06T02:46:10.986Z,15.62
2023-03-06T02:47:10.942Z,15.62
2023-03-06T02:48:10.905Z,15.62
2023-03-06T02:49:10.899Z,15.60
2023-03-06T02:50:10.882Z,15.62
2023-03-06T02:51:10.888Z,15.62
2023-03-06T02:52:10.882Z,15.60
2023-03-06T02:53:10.850Z,15.62
2023-03-06T02:54:10.844Z,15.60
2023-03-06T02:55:10.856Z,15.60
2023-03-06T02:56:10.819Z,15.60
2023-03-06T02:57:10.827Z,15.60
2023-03-06T02:58:10.799Z,15.60
2023-03-06T02:59:10.810Z,15.60
2023-03-06T03:00:10.775Z,15.60
2023-03-06T03:01:10.828Z,15.60
2023-03-06T03:02:10.763Z,15.60
2023-03-06T03:03:10.756Z,15.62
2023-03-06T03:04:10.800Z,15.60
2023-03-06T03:05:10.717Z,15.62
2023-03-06T03:06:10.725Z,15.62
2023-03-06T03:07:10.696Z,15.62
2023-03-06T03:08:10.688Z,15.62
2023-03-06T03:09:10.698Z,15.62
2023-03-06T03:10:10.662Z,15.62
2023-03-06T03:11:10.679Z,15.62
2023-03-06T03:12:10.665Z,15.62
2023-03-06T03:13:10.653Z,15.62
2023-03-06T03:14:10.639Z,15.60
2023-03-06T03:15:10.608Z,15.60
2023-03-06T03:16:10.696Z,15.60
2023-03-06T03:17:10.586Z,15.60
2023-03-06T03:18:10.582Z,15.60
2023-03-06T03:19:10.585Z,15.60
2023-03-06T03:20:10.557Z,15.59
2023-03-06T03:21:10.564Z,15.60
2023-03-06T03:22:10.534Z,15.60
2023-03-06T03:23:10.530Z,15.60
2023-03-06T03:24:10.542Z,15.60
2023-03-06T03:25:10.505Z,15.59
2023-03-06T03:26:10.510Z,15.60
2023-03-06T03:27:10.505Z,15.60
2023-03-06T03:28:10.471Z,15.60
2023-03-06T03:29:10.462Z,15.60
2023-03-06T03:30:10.476Z,15.60
2023-03-06T03:31:10.521Z,15.59
2023-03-06T03:32:10.452Z,15.59
2023-03-06T03:33:10.419Z,15.60
2023-03-06T03:34:10.408Z,15.60
2023-03-06T03:35:10.418Z,15.59
2023-03-06T03:36:10.384Z,15.59
2023-03-06T03:37:10.403Z,15.60
2023-03-06T03:38:17.840Z,15.59
2023-03-06T03:39:10.356Z,15.59
2023-03-06T03:40:10.406Z,15.59
2023-03-06T03:41:10.332Z,15.60
2023-03-06T03:42:10.341Z,15.60
2023-03-06T03:43:10.337Z,15.60
2023-03-06T03:44:10.311Z,15.60
2023-03-06T03:45:10.289Z,15.59
2023-03-06T03:46:10.328Z,15.62
2023-03-06T03:47:10.267Z,15.60
2023-03-06T03:48:10.258Z,15.62
2023-03-06T03:49:10.246Z,15.60
2023-03-06T03:50:10.239Z,15.60
2023-03-06T03:51:10.267Z,15.60
2023-03-06T03:52:10.214Z,15.59
2023-03-06T03:53:10.209Z,15.60
2023-03-06T03:54:10.192Z,15.60
2023-03-06T03:55:10.183Z,15.60
2023-03-06T03:56:10.170Z,15.60
2023-03-06T03:57:10.179Z,15.59
2023-03-06T03:58:10.146Z,15.60
2023-03-06T03:59:10.161Z,15.60
2023-03-06T04:00:10.130Z,15.60
2023-03-06T04:01:10.113Z,15.60
2023-03-06T04:02:10.226Z,15.60
2023-03-06T04:03:10.101Z,15.60
2023-03-06T04:04:10.103Z,15.60
2023-03-06T04:05:10.098Z,15.60
2023-03-06T04:06:10.059Z,15.60
2023-03-06T04:07:10.046Z,15.59
2023-03-06T04:08:10.062Z,15.60
2023-03-06T04:09:10.026Z,15.59
2023-03-06T04:10:10.016Z,15.60
2023-03-06T04:11:10.034Z,15.60
2023-03-06T04:12:10.000Z,15.60
2023-03-06T04:13:10.312Z,15.60
2023-03-06T04:14:09.977Z,15.59
2023-03-06T04:15:09.988Z,15.60
2023-03-06T04:16:10.001Z,15.62
2023-03-06T04:17:09.940Z,15.60
2023-03-06T04:18:09.934Z,15.59
2023-03-06T04:19:09.920Z,15.59
2023-03-06T04:20:09.916Z,15.60
2023-03-06T04:21:09.898Z,15.60
2023-03-06T04:22:09.917Z,15.59
2023-03-06T04:23:09.877Z,15.59
2023-03-06T04:24:09.893Z,15.59
2023-03-06T04:25:09.871Z,15.60
2023-03-06T04:26:09.859Z,15.59
2023-03-06T04:27:09.838Z,15.60
2023-03-06T04:28:09.824Z,15.59
2023-03-06T04:29:09.814Z,15.59
2023-03-06T04:30:09.825Z,15.60
2023-03-06T04:31:09.822Z,15.60
2023-03-06T04:32:09.803Z,15.60
2023-03-06T04:33:09.771Z,15.59
2023-03-06T04:34:09.762Z,15.59
2023-03-06T04:35:09.788Z,15.59
2023-03-06T04:36:09.740Z,15.59
2023-03-06T04:37:09.733Z,15.59
2023-03-06T04:38:09.735Z,15.59
2023-03-06T04:39:09.748Z,15.60
2023-03-06T04:40:09.718Z,15.59
2023-03-06T04:41:09.687Z,15.57
2023-03-06T04:42:09.675Z,15.60
2023-03-06T04:43:09.667Z,15.60
2023-03-06T04:44:09.682Z,15.59
2023-03-06T04:45:09.643Z,15.59
2023-03-06T04:46:09.632Z,15.59
2023-03-06T04:47:09.648Z,15.57
2023-03-06T04:48:09.611Z,15.59
2023-03-06T04:49:09.643Z,15.59
2023-03-06T04:50:09.595Z,15.59
2023-03-06T04:51:09.578Z,15.59
2023-03-06T04:52:09.569Z,15.57
2023-03-06T04:53:09.584Z,15.59
2023-03-06T04:54:09.547Z,15.59
2023-03-06T04:55:09.535Z,15.57
2023-03-06T04:56:09.575Z,15.59
2023-03-06T04:57:09.516Z,15.59
2023-03-06T04:58:09.503Z,15.60
2023-03-06T04:59:09.496Z,15.59
2023-03-06T05:00:09.504Z,15.59
2023-03-06T05:01:09.539Z,15.59
2023-03-06T05:02:09.497Z,15.59
2023-03-06T05:03:09.471Z,15.57
2023-03-06T05:04:09.468Z,15.59
2023-03-06T05:05:09.447Z,15.60
2023-03-06T05:06:09.447Z,15.59
2023-03-06T05:07:09.409Z,15.59
2023-03-06T05:08:09.392Z,15.57
2023-03-06T05:09:09.383Z,15.59
2023-03-06T05:10:09.372Z,15.59
2023-03-06T05:11:09.383Z,15.57
2023-03-06T05:12:09.376Z,15.60
2023-03-06T05:13:09.335Z,15.57
2023-03-06T05:14:09.326Z,15.59
2023-03-06T05:15:09.323Z,15.60
2023-03-06T05:16:09.373Z,15.59
2023-03-06T05:17:09.314Z,15.57
2023-03-06T05:18:09.281Z,15.57
2023-03-06T05:19:09.310Z,15.59
2023-03-06T05:20:09.264Z,15.57
2023-03-06T05:21:09.252Z,15.59
2023-03-06T05:22:09.266Z,15.59
2023-03-06T05:23:09.230Z,15.59
2023-03-06T05:24:09.219Z,15.59
2023-03-06T05:25:09.210Z,15.57
2023-03-06T05:26:09.196Z,15.57
2023-03-06T05:27:09.210Z,15.59
2023-03-06T05:28:09.171Z,15.57
2023-03-06T05:29:09.174Z,15.57
2023-03-06T05:30:09.151Z,15.57
2023-03-06T05:31:09.148Z,15.59
2023-03-06T05:32:09.339Z,15.57
2023-03-06T05:33:09.120Z,15.57
2023-03-06T05:34:09.130Z,15.59
2023-03-06T05:35:09.122Z,15.59
2023-03-06T05:36:09.101Z,15.59
2023-03-06T05:37:09.079Z,15.57
2023-03-06T05:38:09.090Z,15.57
2023-03-06T05:39:09.059Z,15.57
2023-03-06T05:40:09.050Z,15.60
2023-03-06T05:41:09.038Z,15.57
2023-03-06T05:42:09.026Z,15.59
2023-03-06T05:43:09.049Z,15.59
2023-03-06T05:44:09.028Z,15.59
2023-03-06T05:45:08.997Z,15.59
2023-03-06T05:46:09.052Z,15.57
2023-03-06T05:47:08.973Z,15.57
2023-03-06T05:48:08.962Z,15.57
2023-03-06T05:49:08.956Z,15.57
2023-03-06T05:50:08.964Z,15.57
2023-03-06T05:51:08.956Z,15.59
2023-03-06T05:52:08.931Z,15.57
2023-03-06T05:53:08.909Z,15.57
2023-03-06T05:54:08.899Z,15.59
2023-03-06T05:55:08.913Z,15.59
2023-03-06T05:56:08.892Z,15.59
2023-03-06T05:57:08.864Z,15.57
2023-03-06T05:58:08.852Z,15.59
2023-03-06T05:59:08.841Z,15.57
2023-03-06T06:00:08.861Z,15.57
2023-03-06T06:01:08.821Z,15.57
2023-03-06T06:02:08.830Z,15.57
2023-03-06T06:03:08.875Z,15.57
2023-03-06T06:04:08.790Z,15.57
2023-03-06T06:05:09.844Z,15.57
2023-03-06T06:06:08.771Z,15.57
2023-03-06T06:07:08.777Z,15.57
2023-03-06T06:08:08.771Z,15.57
2023-03-06T06:09:08.737Z,15.56
2023-03-06T06:10:08.721Z,15.57
2023-03-06T06:11:08.713Z,15.59
2023-03-06T06:12:08.699Z,15.57
2023-03-06T06:13:08.721Z,15.57
2023-03-06T06:14:08.686Z,15.57
2023-03-06T06:15:08.702Z,15.57
2023-03-06T06:16:08.755Z,15.57
2023-03-06T06:17:08.698Z,15.57
2023-03-06T06:18:08.644Z,15.57
2023-03-06T06:19:08.629Z,15.57
2023-03-06T06:20:08.615Z,15.57
2023-03-06T06:21:08.602Z,15.57
2023-03-06T06:22:08.596Z,15.57
2023-03-06T06:23:08.625Z,15.59
2023-03-06T06:24:08.590Z,15.57
2023-03-06T06:25:08.560Z,15.57
2023-03-06T06:26:08.554Z,15.57
2023-03-06T06:27:08.542Z,15.59
2023-03-06T06:28:08.533Z,15.57
2023-03-06T06:29:08.537Z,15.57
2023-03-06T06:30:08.511Z,15.57
2023-03-06T06:31:08.623Z,15.57
2023-03-06T06:32:08.537Z,15.57
2023-03-06T06:33:08.470Z,15.57
2023-03-06T06:34:08.492Z,15.57
2023-03-06T06:35:08.451Z,15.59
2023-03-06T06:36:08.440Z,15.57
2023-03-06T06:37:08.430Z,15.57
2023-03-06T06:38:08.418Z,15.57
2023-03-06T06:39:08.452Z,15.57
2023-03-06T06:40:08.402Z,15.56
2023-03-06T06:41:42.290Z,15.57
2023-03-06T06:42:28.884Z,15.57
2023-03-06T06:43:09.373Z,15.56
2023-03-06T06:44:08.824Z,15.59
2023-03-06T06:45:08.386Z,15.56
2023-03-06T06:46:34.027Z,15.57
2023-03-06T06:47:25.734Z,15.56
2023-03-06T06:48:09.356Z,15.59
2023-03-06T06:49:08.322Z,15.56
2023-03-06T06:50:08.394Z,15.56
2023-03-06T06:51:08.277Z,15.56
2023-03-06T06:52:08.294Z,15.56
2023-03-06T06:53:08.255Z,15.57
2023-03-06T06:54:08.249Z,15.56
2023-03-06T06:55:08.308Z,15.57
2023-03-06T06:56:08.247Z,15.57
2023-03-06T06:57:08.214Z,15.57
2023-03-06T06:58:08.201Z,15.57
2023-03-06T06:59:16.625Z,15.56
2023-03-06T07:00:09.237Z,15.56
2023-03-06T07:01:08.240Z,15.57
2023-03-06T07:02:08.160Z,15.56
2023-03-06T07:03:08.152Z,15.56
2023-03-06T07:04:08.220Z,15.56
2023-03-06T07:05:08.169Z,15.56
2023-03-06T07:06:08.127Z,15.56
2023-03-06T07:07:08.108Z,15.57
2023-03-06T07:08:08.095Z,15.57
2023-03-06T07:09:08.091Z,15.57
2023-03-06T07:10:08.074Z,15.56
2023-03-06T07:11:08.114Z,15.59
2023-03-06T07:12:08.053Z,15.56
2023-03-06T07:13:08.049Z,15.57
2023-03-06T07:14:08.036Z,15.56
2023-03-06T07:15:08.031Z,15.57
2023-03-06T07:16:08.118Z,15.56
2023-03-06T07:17:08.006Z,15.57
2023-03-06T07:18:07.986Z,15.56
2023-03-06T07:19:07.981Z,15.57
2023-03-06T07:20:07.967Z,15.57
2023-03-06T07:21:07.978Z,15.57
2023-03-06T07:22:07.966Z,15.56
2023-03-06T07:23:07.938Z,15.57
2023-03-06T07:24:07.977Z,15.57
2023-03-06T07:25:07.909Z,15.57
2023-03-06T07:26:07.905Z,15.56
2023-03-06T07:27:07.946Z,15.57
2023-03-06T07:28:08.047Z,15.57
2023-03-06T07:29:07.869Z,15.56
2023-03-06T07:30:08.049Z,15.56
2023-03-06T07:31:07.886Z,15.56
2023-03-06T07:32:07.899Z,15.57
2023-03-06T07:33:07.827Z,15.57
2023-03-06T07:34:07.816Z,15.57
2023-03-06T07:35:19.707Z,15.57
2023-03-06T07:36:10.886Z,15.57
2023-03-06T07:37:07.793Z,15.56
2023-03-06T07:38:07.777Z,15.57
2023-03-06T07:39:07.761Z,15.57
2023-03-06T07:40:07.789Z,15.57
2023-03-06T07:41:07.741Z,15.57
2023-03-06T07:42:07.746Z,15.56
2023-03-06T07:43:18.786Z,15.57
2023-03-06T07:44:08.710Z,15.57
2023-03-06T07:45:07.727Z,15.57
2023-03-06T07:46:07.798Z,15.57
2023-03-06T07:47:07.702Z,15.57
2023-03-06T07:48:07.671Z,15.57
2023-03-06T07:49:07.686Z,15.57
2023-03-06T07:50:07.646Z,15.57
2023-03-06T07:51:07.656Z,15.56
2023-03-06T07:52:07.626Z,15.57
2023-03-06T07:53:07.636Z,15.56
2023-03-06T07:54:07.603Z,15.57
2023-03-06T07:55:07.599Z,15.57
2023-03-06T07:56:07.607Z,15.57
2023-03-06T07:57:07.577Z,15.57
2023-03-06T07:58:07.561Z,15.57
2023-03-06T07:59:07.579Z,15.57
2023-03-06T08:00:07.553Z,15.59
2023-03-06T08:01:07.531Z,15.57
2023-03-06T08:02:07.540Z,15.59
2023-03-06T08:03:07.591Z,15.60
2023-03-06T08:04:07.576Z,15.60
2023-03-06T08:05:07.550Z,15.60
2023-03-06T08:06:07.471Z,15.64
2023-03-06T08:07:07.492Z,15.65
2023-03-06T08:08:07.456Z,15.67
2023-03-06T08:09:07.465Z,15.68
2023-03-06T08:10:07.431Z,15.72
2023-03-06T08:11:07.426Z,15.74
2023-03-06T08:12:07.409Z,15.76
2023-03-06T08:13:07.436Z,15.82
2023-03-06T08:14:07.394Z,15.84
2023-03-06T08:15:07.469Z,15.87
2023-03-06T08:16:07.447Z,15.90
2023-03-06T08:17:07.354Z,15.97
2023-03-06T08:18:07.341Z,16.00
2023-03-06T08:19:07.333Z,16.05
2023-03-06T08:20:07.323Z,16.11
2023-03-06T08:21:07.327Z,16.14
2023-03-06T08:22:07.298Z,16.21
2023-03-06T08:23:07.289Z,16.25
2023-03-06T08:24:07.630Z,16.30
2023-03-06T08:25:07.334Z,16.35
2023-03-06T08:26:07.277Z,16.41
2023-03-06T08:27:07.275Z,16.46
2023-03-06T08:28:07.238Z,16.52
2023-03-06T08:29:07.248Z,16.58
2023-03-06T08:30:07.212Z,16.64
2023-03-06T08:31:07.279Z,16.68
2023-03-06T08:32:07.230Z,16.73
2023-03-06T08:33:07.176Z,16.78
2023-03-06T08:34:07.197Z,16.81
2023-03-06T08:35:07.249Z,16.83
2023-03-06T08:36:07.171Z,16.88
2023-03-06T08:37:07.188Z,16.91
2023-03-06T08:38:07.124Z,16.93
2023-03-06T08:39:07.137Z,16.96
2023-03-06T08:40:07.103Z,16.97
2023-03-06T08:41:07.112Z,16.98
2023-03-06T08:42:07.086Z,17.00
2023-03-06T08:43:07.085Z,17.01
2023-03-06T08:44:07.068Z,17.03
2023-03-06T08:45:07.095Z,17.03
2023-03-06T08:46:07.146Z,17.04
2023-03-06T08:47:07.057Z,17.06
2023-03-06T08:48:07.019Z,17.04
2023-03-06T08:49:07.062Z,17.04
2023-03-06T08:50:06.996Z,17.06
2023-03-06T08:51:07.003Z,17.06
2023-03-06T08:52:07.006Z,17.06
2023-03-06T08:53:06.966Z,17.04
2023-03-06T08:54:06.957Z,17.04
2023-03-06T08:55:07.073Z,17.04
2023-03-06T08:56:06.933Z,17.03
2023-03-06T08:57:06.958Z,17.03
2023-03-06T08:58:06.933Z,17.03
2023-03-06T08:59:06.979Z,17.03
2023-03-06T09:00:06.896Z,17.01
2023-03-06T09:01:07.022Z,17.01
2023-03-06T09:02:06.891Z,17.01
2023-03-06T09:03:06.888Z,17.01
2023-03-06T09:04:06.876Z,17.00
2023-03-06T09:05:06.906Z,16.98
2023-03-06T09:06:06.843Z,16.98
2023-03-06T09:07:06.812Z,16.98
2023-03-06T09:08:06.800Z,16.98
2023-03-06T09:09:06.821Z,16.97
2023-03-06T09:10:06.783Z,16.98
2023-03-06T09:11:06.771Z,16.98
2023-03-06T09:12:06.755Z,16.97
2023-03-06T09:13:06.777Z,16.97
2023-03-06T09:14:06.736Z,16.96
2023-03-06T09:15:06.781Z,16.96
2023-03-06T09:16:06.715Z,16.96
2023-03-06T09:17:06.735Z,16.96
2023-03-06T09:18:06.818Z,16.94
2023-03-06T09:19:06.715Z,16.96
2023-03-06T09:20:06.703Z,16.96
2023-03-06T09:21:06.660Z,16.94
2023-03-06T09:22:06.652Z,16.94
2023-03-06T09:23:06.648Z,16.93
2023-03-06T09:24:06.660Z,16.93
2023-03-06T09:25:06.701Z,16.93
2023-03-06T09:26:06.637Z,16.94
2023-03-06T09:27:06.605Z,16.93
2023-03-06T09:28:11.636Z,16.93
2023-03-06T09:29:07.578Z,16.91
2023-03-06T09:30:06.579Z,16.91
2023-03-06T09:31:06.625Z,16.91
2023-03-06T09:32:06.709Z,16.91
2023-03-06T09:33:06.535Z,16.88
2023-03-06T09:34:06.535Z,16.89
2023-03-06T09:35:06.617Z,16.88
2023-03-06T09:36:06.511Z,16.88
2023-03-06T09:37:06.496Z,16.88
2023-03-06T09:38:06.515Z,16.88
2023-03-06T09:39:06.475Z,16.86
2023-03-06T09:40:06.488Z,16.86
2023-03-06T09:41:06.452Z,16.85
2023-03-06T09:42:06.443Z,16.86
2023-03-06T09:43:06.429Z,16.85
2023-03-06T09:44:06.418Z,16.85
2023-03-06T09:45:06.447Z,16.83
2023-03-06T09:46:06.480Z,16.83
2023-03-06T09:47:06.411Z,16.85
2023-03-06T09:48:06.388Z,16.83
2023-03-06T09:49:06.363Z,16.85
2023-03-06T09:50:06.358Z,16.83
2023-03-06T09:51:06.364Z,16.83
2023-03-06T09:52:06.352Z,16.82
2023-03-06T09:53:06.327Z,16.83
2023-03-06T09:54:06.312Z,16.82
2023-03-06T09:55:06.338Z,16.82
2023-03-06T09:56:06.293Z,16.81
2023-03-06T09:57:06.301Z,16.82
2023-03-06T09:58:07.523Z,16.81
2023-03-06T09:59:06.268Z,16.79
2023-03-06T10:00:06.242Z,16.79
2023-03-06T10:01:06.236Z,16.78
2023-03-06T10:02:06.349Z,16.78
2023-03-06T10:03:06.409Z,16.78
2023-03-06T10:04:06.201Z,16.78
2023-03-06T10:05:06.380Z,16.79
2023-03-06T10:06:06.179Z,16.79
2023-03-06T10:07:06.199Z,16.79
2023-03-06T10:08:06.187Z,16.79
2023-03-06T10:09:06.156Z,16.79
2023-03-06T10:10:06.137Z,16.78
2023-03-06T10:11:06.126Z,16.78
2023-03-06T10:12:06.120Z,16.78
2023-03-06T10:13:06.129Z,16.81
2023-03-06T10:14:06.103Z,16.78
2023-03-06T10:15:06.098Z,16.79
2023-03-06T10:16:06.142Z,16.79
2023-03-06T10:17:06.086Z,16.79
2023-03-06T10:18:06.054Z,16.79
2023-03-06T10:19:06.041Z,16.79
2023-03-06T10:20:06.062Z,16.81
2023-03-06T10:21:18.723Z,16.79
2023-03-06T10:22:07.007Z,16.79
2023-03-06T10:23:06.032Z,16.79
2023-03-06T10:24:06.057Z,16.79
2023-03-06T10:25:06.005Z,16.79
2023-03-06T10:26:06.014Z,16.78
2023-03-06T10:27:06.027Z,16.78
2023-03-06T10:28:05.949Z,16.78
2023-03-06T10:29:05.944Z,16.76
2023-03-06T10:30:05.949Z,16.76
2023-03-06T10:31:05.954Z,16.76
2023-03-06T10:32:05.942Z,16.78
2023-03-06T10:33:05.996Z,16.79
2023-03-06T10:34:05.884Z,16.78
2023-03-06T10:35:05.896Z,16.78
2023-03-06T10:36:05.959Z,16.81
2023-03-06T10:37:05.860Z,16.81
2023-03-06T10:38:05.862Z,16.82
2023-03-06T10:39:05.858Z,16.82
2023-03-06T10:40:05.820Z,16.83
2023-03-06T10:41:05.813Z,16.85
2023-03-06T10:42:05.798Z,16.86
2023-03-06T10:43:11.823Z,16.85
2023-03-06T10:44:06.776Z,16.85
2023-03-06T10:45:05.768Z,16.86
2023-03-06T10:46:05.808Z,16.88
2023-03-06T10:47:05.787Z,16.88
2023-03-06T10:48:05.742Z,16.91
2023-03-06T10:49:05.729Z,16.91
2023-03-06T10:50:08.312Z,16.91
2023-03-06T10:51:16.630Z,16.93
2023-03-06T10:52:06.743Z,16.91
2023-03-06T10:53:05.700Z,16.94
2023-03-06T10:54:05.670Z,16.93
2023-03-06T10:55:05.707Z,16.96
2023-03-06T10:56:05.648Z,16.96
2023-03-06T10:57:05.635Z,16.97
2023-03-06T10:58:05.625Z,16.97
2023-03-06T10:59:05.639Z,16.98
2023-03-06T11:00:05.616Z,16.98
2023-03-06T11:01:05.621Z,16.98
2023-03-06T11:02:05.581Z,17.01
2023-03-06T11:03:05.571Z,17.01
2023-03-06T11:04:05.589Z,17.01
2023-03-06T11:05:05.583Z,17.01
2023-03-06T11:06:05.540Z,17.03
2023-03-06T11:07:05.569Z,17.03
2023-03-06T11:08:05.516Z,17.04
2023-03-06T11:09:05.504Z,17.04
2023-03-06T11:10:05.496Z,17.04
2023-03-06T11:11:05.531Z,17.03
2023-03-06T11:12:05.477Z,17.06
2023-03-06T11:13:05.486Z,17.06
2023-03-06T11:14:05.457Z,17.04
2023-03-06T11:15:05.438Z,17.04
2023-03-06T11:16:05.515Z,17.06
2023-03-06T11:17:05.419Z,17.06
2023-03-06T11:18:05.434Z,17.06
2023-03-06T11:19:05.395Z,17.04
2023-03-06T11:20:05.390Z,17.06
2023-03-06T11:21:05.375Z,17.04
2023-03-06T11:22:05.369Z,17.03
2023-03-06T11:23:05.381Z,17.04
2023-03-06T11:24:05.355Z,17.04
2023-03-06T11:25:05.333Z,17.04
2023-03-06T11:26:05.342Z,17.04
2023-03-06T11:27:05.353Z,17.04
2023-03-06T11:28:05.315Z,17.04
2023-03-06T11:29:05.370Z,17.06
2023-03-06T11:30:05.277Z,17.06
2023-03-06T11:31:05.301Z,17.03
2023-03-06T11:32:05.342Z,17.04
2023-03-06T11:33:05.282Z,17.06
2023-03-06T11:34:05.241Z,17.06
2023-03-06T11:35:05.300Z,17.06
2023-03-06T11:36:05.211Z,17.04
2023-03-06T11:37:05.198Z,17.06
2023-03-06T11:38:05.186Z,17.04
2023-03-06T11:39:05.196Z,17.04
2023-03-06T11:40:05.166Z,17.04
2023-03-06T11:41:05.153Z,17.03
2023-03-06T11:42:05.140Z,17.04
2023-03-06T11:43:05.186Z,17.04
2023-03-06T11:44:05.143Z,17.03
2023-03-06T11:45:05.111Z,17.04
2023-03-06T11:46:05.098Z,17.04
2023-03-06T11:47:05.108Z,17.04
2023-03-06T11:48:05.075Z,17.04
2023-03-06T11:49:05.095Z,17.04
2023-03-06T11:50:05.062Z,17.06
2023-03-06T11:51:06.499Z,17.06
2023-03-06T11:52:05.043Z,17.06
2023-03-06T11:53:05.038Z,17.04
2023-03-06T11:54:05.010Z,17.06
2023-03-06T11:55:05.021Z,17.06
2023-03-06T11:56:05.016Z,17.04
2023-03-06T11:57:04.980Z,17.07
2023-03-06T11:58:04.969Z,17.06
2023-03-06T11:59:04.984Z,17.07
2023-03-06T12:00:04.948Z,17.06
2023-03-06T12:01:04.942Z,17.07
2023-03-06T12:02:05.073Z,17.06
2023-03-06T12:03:04.919Z,17.06
2023-03-06T12:04:04.904Z,17.06
2023-03-06T12:05:04.996Z,17.07
2023-03-06T12:06:04.883Z,17.04
2023-03-06T12:07:07.284Z,17.06
2023-03-06T12:08:04.924Z,17.06
2023-03-06T12:09:04.910Z,17.06
2023-03-06T12:11:04.835Z,17.06
2023-03-06T12:12:04.839Z,17.07
2023-03-06T12:13:04.808Z,17.06
2023-03-06T12:14:04.853Z,17.04
2023-03-06T12:15:04.811Z,17.04
2023-03-06T12:16:04.807Z,17.06
2023-03-06T12:17:04.792Z,17.06
2023-03-06T12:18:04.794Z,17.04
2023-03-06T12:19:04.765Z,17.06
2023-03-06T12:20:04.735Z,17.06
2023-03-06T12:21:04.720Z,17.04
2023-03-06T12:22:04.709Z,17.04
2023-03-06T12:23:14.822Z,17.04
2023-03-06T12:24:05.716Z,17.06
2023-03-06T12:25:04.680Z,17.06
2023-03-06T12:26:04.668Z,17.06
2023-03-06T12:27:04.655Z,17.06
2023-03-06T12:28:04.666Z,17.06
2023-03-06T12:29:04.640Z,17.06
2023-03-06T12:30:04.624Z,17.04
2023-03-06T12:31:04.715Z,17.06
2023-03-06T12:32:04.808Z,17.04
2023-03-06T12:33:04.619Z,17.06
2023-03-06T12:34:04.587Z,17.06
2023-03-06T12:35:06.105Z,17.06
2023-03-06T12:36:04.588Z,17.07
2023-03-06T12:37:04.552Z,17.07
2023-03-06T12:38:04.559Z,17.07
2023-03-06T12:39:04.563Z,17.07
2023-03-06T12:40:04.517Z,17.07
2023-03-06T12:41:04.549Z,17.08
2023-03-06T12:42:06.751Z,17.07
2023-03-06T12:43:04.492Z,17.08
2023-03-06T12:44:04.474Z,17.11
2023-03-06T12:45:04.484Z,17.11
2023-03-06T12:46:04.522Z,17.11
2023-03-06T12:47:04.459Z,17.08
2023-03-06T12:48:04.431Z,17.08
2023-03-06T12:49:04.426Z,17.07
2023-03-06T12:50:04.431Z,17.08
2023-03-06T12:51:04.407Z,17.08
2023-03-06T12:52:04.415Z,17.06
2023-03-06T12:53:04.372Z,17.07